createdAt,value
2023-04-12T00:01:44.433Z,10.70
2023-04-12T00:04:14.604Z,10.70
2023-04-12T00:06:42.586Z,10.60
2023-04-12T00:09:09.540Z,10.70
2023-04-12T00:11:36.732Z,10.60
2023-04-12T00:14:03.661Z,10.60
2023-04-12T00:16:30.870Z,10.60
2023-04-12T00:18:58.022Z,10.60
2023-04-12T00:21:28.768Z,10.50
2023-04-12T00:23:56.819Z,10.50
2023-04-12T00:26:25.615Z,10.40
2023-04-12T00:28:52.633Z,10.30
2023-04-12T00:31:19.572Z,10.30
2023-04-12T00:33:46.575Z,10.20
2023-04-12T00:36:13.601Z,10.10
2023-04-12T00:38:40.707Z,10.00
2023-04-12T00:41:07.697Z,10.00
2023-04-12T00:43:34.651Z,9.90
2023-04-12T00:46:01.901Z,9.90
2023-04-12T00:48:29.082Z,9.80
2023-04-12T00:50:57.637Z,9.80
2023-04-12T00:53:24.620Z,9.80
2023-04-12T00:55:52.451Z,9.80
2023-04-12T00:58:19.368Z,9.70
2023-04-12T01:00:50.383Z,9.70
2023-04-12T01:03:23.664Z,9.70
2023-04-12T01:06:04.845Z,9.60
2023-04-12T01:08:44.557Z,9.50
2023-04-12T01:11:28.712Z,9.60
2023-04-12T01:14:23.138Z,9.50
2023-04-12T01:16:53.886Z,9.50
2023-04-12T01:19:37.261Z,9.50
2023-04-12T01:22:19.682Z,9.40
2023-04-12T01:24:57.626Z,9.40
2023-04-12T01:27:45.271Z,9.40
2023-04-12T01:30:14.736Z,9.30
2023-04-12T01:32:44.428Z,9.30
2023-04-12T01:35:11.786Z,9.20
2023-04-12T01:37:39.549Z,9.30
2023-04-12T01:40:09.179Z,9.30
2023-04-12T01:42:36.374Z,9.20
2023-04-12T01:45:04.090Z,9.20
2023-04-12T01:47:31.415Z,9.20
2023-04-12T01:50:20.548Z,9.20
2023-04-12T01:53:03.086Z,9.20
2023-04-12T01:55:32.609Z,9.10
2023-04-12T01:58:01.239Z,9.20
2023-04-12T02:00:29.073Z,9.20
2023-04-12T02:02:57.763Z,9.20
2023-04-12T02:05:25.627Z,9.20
2023-04-12T02:07:52.854Z,9.10
2023-04-12T02:10:30.491Z,9.10
2023-04-12T02:13:02.812Z,9.10
2023-04-12T02:15:30.125Z,9.10
2023-04-12T02:17:59.421Z,9.10
2023-04-12T02:20:27.359Z,9.10
2023-04-12T02:22:55.049Z,9.10
2023-04-12T02:25:22.172Z,9.10
2023-04-12T02:27:49.297Z,9.10
2023-04-12T02:30:16.551Z,9.00
2023-04-12T02:32:46.737Z,9.00
2023-04-12T02:35:19.332Z,9.00
2023-04-12T02:37:47.528Z,8.90
2023-04-12T02:40:15.746Z,9.00
2023-04-12T02:42:43.578Z,9.00
2023-04-12T02:45:11.874Z,8.90
2023-04-12T02:47:40.793Z,8.90
2023-04-12T02:50:09.434Z,8.90
2023-04-12T02:52:36.673Z,8.90
2023-04-12T02:55:04.834Z,8.90
2023-04-12T02:57:31.897Z,8.90
2023-04-12T02:59:59.115Z,8.80
2023-04-12T03:02:26.495Z,8.90
2023-04-12T03:04:54.999Z,8.90
2023-04-12T03:07:22.637Z,8.90
2023-04-12T03:09:50.858Z,8.90
2023-04-12T03:12:18.026Z,8.90
2023-04-12T03:14:45.564Z,8.90
2023-04-12T03:17:12.733Z,8.90
2023-04-12T03:19:40.435Z,8.90
2023-04-12T03:22:07.441Z,8.90
2023-04-12T03:24:34.969Z,8.90
2023-04-12T03:27:02.949Z,8.90
2023-04-12T03:29:33.454Z,8.90
2023-04-12T03:32:00.849Z,8.90
2023-04-12T03:34:32.611Z,8.90
2023-04-12T03:37:01.587Z,8.90
2023-04-12T03:39:29.314Z,8.90
2023-04-12T03:41:56.509Z,8.90
2023-04-12T03:44:26.230Z,8.90
2023-04-12T03:46:53.833Z,8.90
2023-04-12T03:49:21.630Z,8.90
2023-04-12T03:51:50.925Z,8.90
2023-04-12T03:54:18.078Z,8.90
2023-04-12T03:56:46.403Z,8.90
2023-04-12T03:59:14.826Z,8.90
2023-04-12T04:01:43.394Z,8.90
2023-04-12T04:04:11.124Z,8.90
2023-04-12T04:06:38.793Z,8.80
2023-04-12T04:09:06.366Z,8.80
2023-04-12T04:11:33.454Z,8.80
2023-04-12T04:14:00.764Z,8.80
2023-04-12T04:16:29.452Z,8.80
2023-04-12T04:18:56.925Z,8.80
2023-04-12T04:21:24.939Z,8.80
2023-04-12T04:23:53.020Z,8.80
2023-04-12T04:26:20.403Z,8.70
2023-04-12T04:28:47.462Z,8.70
2023-04-12T04:31:17.729Z,8.70
2023-04-12T04:33:45.273Z,8.60
2023-04-12T04:36:15.516Z,8.60
2023-04-12T04:38:42.774Z,8.60
2023-04-12T04:41:10.656Z,8.60
2023-04-12T04:43:40.174Z,8.60
2023-04-12T04:46:07.311Z,8.50
2023-04-12T04:48:34.615Z,8.50
2023-04-12T04:51:02.712Z,8.50
2023-04-12T04:53:29.862Z,8.50
2023-04-12T04:56:01.064Z,8.50
2023-04-12T04:58:31.127Z,8.50
2023-04-12T05:00:59.223Z,8.30
2023-04-12T05:03:31.148Z,8.50
2023-04-12T05:05:59.099Z,8.50
2023-04-12T05:08:26.411Z,8.40
2023-04-12T05:10:53.584Z,8.50
2023-04-12T05:13:22.413Z,8.50
2023-04-12T05:15:50.617Z,8.40
2023-04-12T05:18:20.705Z,8.50
2023-04-12T05:20:48.760Z,8.50
2023-04-12T05:23:16.509Z,8.50
2023-04-12T05:25:47.292Z,8.50
2023-04-12T05:28:15.971Z,8.50
2023-04-12T05:30:44.438Z,8.50
2023-04-12T05:33:11.871Z,8.50
2023-04-12T05:35:39.083Z,8.50
2023-04-12T05:38:07.970Z,8.40
2023-04-12T05:40:36.685Z,8.50
2023-04-12T05:43:03.859Z,8.50
2023-04-12T05:45:31.759Z,8.50
2023-04-12T05:47:59.059Z,8.50
2023-04-12T05:50:26.865Z,8.50
2023-04-12T05:52:55.454Z,8.60
2023-04-12T05:55:22.910Z,8.50
2023-04-12T05:57:50.360Z,8.60
2023-04-12T06:00:18.735Z,8.60
2023-04-12T06:02:46.319Z,8.60
2023-04-12T06:05:19.696Z,8.60
2023-04-12T06:07:48.492Z,8.60
2023-04-12T06:10:17.374Z,8.60
2023-04-12T06:12:45.899Z,8.60
2023-04-12T06:15:14.690Z,8.60
2023-04-12T06:17:41.915Z,8.70
2023-04-12T06:20:16.682Z,8.70
2023-04-12T06:22:43.880Z,8.70
2023-04-12T06:25:14.356Z,8.70
2023-04-12T06:27:42.265Z,8.70
2023-04-12T06:30:10.365Z,8.70
2023-04-12T06:32:41.607Z,8.70
2023-04-12T06:35:11.332Z,8.70
2023-04-12T06:37:39.563Z,8.70
2023-04-12T06:40:12.783Z,8.70
2023-04-12T06:42:40.472Z,8.70
2023-04-12T06:45:08.016Z,8.80
2023-04-12T06:47:35.691Z,8.80
2023-04-12T06:50:03.591Z,8.80
2023-04-12T06:52:35.001Z,8.80
2023-04-12T06:55:02.797Z,8.80
2023-04-12T06:57:30.785Z,8.90
2023-04-12T06:59:58.158Z,8.90
2023-04-12T07:02:27.774Z,8.90
2023-04-12T07:04:56.463Z,8.80
2023-04-12T07:07:24.136Z,8.80
2023-04-12T07:09:53.293Z,8.80
2023-04-12T07:12:25.101Z,8.80
2023-04-12T07:14:53.568Z,8.80
2023-04-12T07:17:22.884Z,8.80
2023-04-12T07:19:50.645Z,8.90
2023-04-12T07:22:17.957Z,8.90
2023-04-12T07:24:45.621Z,8.90
2023-04-12T07:27:13.807Z,9.00
2023-04-12T07:29:41.688Z,9.00
2023-04-12T07:32:10.876Z,9.10
2023-04-12T07:34:39.607Z,9.10
2023-04-12T07:37:07.100Z,9.20
2023-04-12T07:39:35.212Z,9.20
2023-04-12T07:42:02.478Z,9.10
2023-04-12T07:44:31.326Z,9.20
2023-04-12T07:46:58.829Z,9.20
2023-04-12T07:49:27.057Z,9.30
2023-04-12T07:51:54.103Z,9.40
2023-04-12T07:54:22.341Z,9.40
2023-04-12T07:57:01.511Z,9.40
2023-04-12T07:59:28.930Z,9.40
2023-04-12T08:01:56.349Z,9.60
2023-04-12T08:04:26.022Z,9.60
2023-04-12T08:06:56.621Z,9.70
2023-04-12T08:09:25.160Z,9.80
2023-04-12T08:11:53.626Z,9.90
2023-04-12T08:14:21.177Z,10.10
2023-04-12T08:16:49.003Z,10.40
2023-04-12T08:19:20.562Z,10.50
2023-04-12T08:21:47.912Z,10.50
2023-04-12T08:24:16.604Z,10.60
2023-04-12T08:26:43.756Z,10.60
2023-04-12T08:29:11.048Z,10.50
2023-04-12T08:31:42.639Z,10.50
2023-04-12T08:34:10.321Z,10.50
2023-04-12T08:36:37.564Z,10.70
2023-04-12T08:39:06.454Z,10.80
2023-04-12T08:41:37.824Z,10.90
2023-04-12T08:44:06.407Z,11.10
2023-04-12T08:46:37.760Z,11.00
2023-04-12T08:49:04.993Z,11.10
2023-04-12T08:51:34.190Z,11.10
2023-04-12T08:54:02.342Z,11.20
2023-04-12T08:56:31.411Z,11.30
2023-04-12T08:59:00.141Z,11.50
2023-04-12T09:01:27.812Z,11.50
2023-04-12T09:03:55.650Z,11.50
2023-04-12T09:06:23.906Z,11.40
2023-04-12T09:08:52.742Z,11.40
2023-04-12T09:11:28.075Z,11.40
2023-04-12T09:13:57.891Z,11.40
2023-04-12T09:16:43.653Z,11.50
2023-04-12T09:19:11.154Z,11.50
2023-04-12T09:21:52.577Z,11.50
2023-04-12T09:24:19.861Z,11.60
2023-04-12T09:26:48.614Z,11.70
2023-04-12T09:29:25.620Z,11.80
2023-04-12T09:32:07.504Z,12.00
2023-04-12T09:34:36.661Z,12.20
2023-04-12T09:37:16.880Z,12.40
2023-04-12T09:39:44.205Z,12.60
2023-04-12T09:42:29.875Z,12.70
2023-04-12T09:45:02.132Z,12.90
2023-04-12T09:47:40.189Z,13.10
2023-04-12T09:50:10.063Z,13.20
2023-04-12T09:52:38.953Z,13.30
2023-04-12T09:55:10.767Z,13.50
2023-04-12T09:57:42.746Z,13.50
2023-04-12T10:00:17.138Z,13.50
2023-04-12T10:02:52.476Z,13.50
2023-04-12T10:05:25.983Z,13.50
2023-04-12T10:07:55.292Z,13.60
2023-04-12T10:10:23.355Z,13.50
2023-04-12T10:12:51.254Z,13.50
2023-04-12T10:15:22.040Z,13.50
2023-04-12T10:17:53.459Z,13.40
2023-04-12T10:20:24.834Z,13.30
2023-04-12T10:22:56.246Z,13.30
2023-04-12T10:25:26.055Z,13.30
2023-04-12T10:27:57.848Z,13.40
2023-04-12T10:30:28.814Z,13.40
2023-04-12T10:33:05.537Z,13.60
2023-04-12T10:35:55.801Z,13.70
2023-04-12T10:38:28.166Z,13.80
2023-04-12T10:41:09.248Z,13.80
2023-04-12T10:43:36.613Z,13.70
2023-04-12T10:46:08.170Z,13.60
2023-04-12T10:48:51.916Z,13.40
2023-04-12T10:51:25.397Z,13.30
2023-04-12T10:53:54.370Z,13.50
2023-04-12T10:56:32.665Z,13.60
2023-04-12T10:59:01.680Z,13.70
2023-04-12T11:01:29.904Z,13.80
2023-04-12T11:04:20.710Z,13.90
2023-04-12T11:07:21.503Z,14.00
2023-04-12T11:09:50.961Z,14.20
2023-04-12T11:12:18.967Z,14.30
2023-04-12T11:14:50.888Z,14.30
2023-04-12T11:17:21.884Z,14.20
2023-04-12T11:20:03.679Z,14.10
2023-04-12T11:22:33.287Z,14.00
2023-04-12T11:25:02.436Z,13.80
2023-04-12T11:27:31.684Z,13.70
2023-04-12T11:30:00.941Z,13.60
2023-04-12T11:32:31.045Z,13.50
2023-04-12T11:35:00.433Z,13.50
2023-04-12T11:37:27.991Z,13.50
2023-04-12T11:39:57.668Z,13.60
2023-04-12T11:42:29.220Z,13.70
2023-04-12T11:45:01.416Z,13.80
2023-04-12T11:47:32.015Z,14.00
2023-04-12T11:50:00.413Z,14.20
2023-04-12T11:52:30.310Z,14.30
2023-04-12T11:55:01.026Z,14.60
2023-04-12T11:57:29.343Z,14.70
2023-04-12T11:59:58.380Z,14.90
2023-04-12T12:02:28.812Z,15.00
2023-04-12T12:05:04.738Z,15.10
2023-04-12T12:07:32.915Z,15.10
2023-04-12T12:10:05.594Z,15.00
2023-04-12T12:12:34.183Z,14.90
2023-04-12T12:15:04.905Z,14.70
2023-04-12T12:17:39.165Z,14.40
2023-04-12T12:20:07.040Z,14.10
2023-04-12T12:22:34.634Z,13.70
2023-04-12T12:25:01.948Z,13.30
2023-04-12T12:27:38.734Z,12.80
2023-04-12T12:30:10.067Z,12.30
2023-04-12T12:32:40.504Z,11.90
2023-04-12T12:35:10.048Z,11.60
2023-04-12T12:37:37.618Z,11.40
2023-04-12T12:40:13.648Z,11.20
2023-04-12T12:42:55.967Z,11.00
2023-04-12T12:45:27.978Z,10.90
2023-04-12T12:47:58.788Z,10.80
2023-04-12T12:50:32.375Z,11.00
2023-04-12T12:53:01.472Z,11.40
2023-04-12T12:55:29.976Z,11.70
2023-04-12T12:58:06.917Z,11.80
2023-04-12T13:00:37.613Z,11.60
2023-04-12T13:03:04.927Z,11.60
2023-04-12T13:05:32.348Z,11.70
2023-04-12T13:07:59.662Z,11.90
2023-04-12T13:10:27.730Z,12.10
2023-04-12T13:12:57.089Z,12.10
2023-04-12T13:15:25.064Z,12.20
2023-04-12T13:17:53.999Z,12.20
2023-04-12T13:20:22.366Z,12.10
2023-04-12T13:22:52.154Z,12.00
2023-04-12T13:25:21.664Z,12.10
2023-04-12T13:27:51.013Z,12.30
2023-04-12T13:30:19.162Z,12.50
2023-04-12T13:32:46.761Z,12.60
2023-04-12T13:35:14.149Z,12.60
2023-04-12T13:37:42.211Z,12.50
2023-04-12T13:40:12.132Z,12.60
2023-04-12T13:42:40.549Z,12.60
2023-04-12T13:45:08.542Z,12.60
2023-04-12T13:47:36.951Z,12.80
2023-04-12T13:50:04.229Z,13.00
2023-04-12T13:52:32.525Z,13.20
2023-04-12T13:55:00.295Z,13.30
2023-04-12T13:57:28.158Z,13.40
2023-04-12T13:59:55.515Z,13.30
2023-04-12T14:02:22.785Z,13.10
2023-04-12T14:04:55.406Z,13.00
2023-04-12T14:07:23.211Z,13.00
2023-04-12T14:09:50.870Z,13.10
2023-04-12T14:12:18.157Z,13.20
2023-04-12T14:14:45.685Z,13.20
2023-04-12T14:17:12.940Z,13.10
2023-04-12T14:19:42.646Z,13.40
2023-04-12T14:22:09.794Z,13.50
2023-04-12T14:24:40.136Z,13.60
2023-04-12T14:27:07.773Z,13.60
2023-04-12T14:29:37.736Z,13.40
2023-04-12T14:32:05.449Z,13.30
2023-04-12T14:34:32.845Z,13.10
2023-04-12T14:37:00.532Z,12.80
2023-04-12T14:39:32.981Z,12.80
2023-04-12T14:42:00.383Z,12.70
2023-04-12T14:44:28.014Z,12.60
2023-04-12T14:46:55.595Z,12.40
2023-04-12T14:49:22.911Z,12.30
2023-04-12T14:51:50.297Z,12.10
2023-04-12T14:54:17.847Z,12.00
2023-04-12T14:56:53.514Z,12.00
2023-04-12T14:59:24.324Z,11.80
2023-04-12T15:01:52.881Z,11.70
2023-04-12T15:04:21.751Z,11.80
2023-04-12T15:06:51.820Z,11.80
2023-04-12T15:09:19.303Z,11.80
2023-04-12T15:11:52.572Z,11.80
2023-04-12T15:14:20.732Z,11.80
2023-04-12T15:16:51.517Z,11.80
2023-04-12T15:19:22.752Z,11.80
2023-04-12T15:21:56.313Z,11.80
2023-04-12T15:24:25.714Z,11.80
2023-04-12T15:26:55.065Z,11.70
2023-04-12T15:29:24.230Z,11.70
2023-04-12T15:31:53.110Z,11.60
2023-04-12T15:34:23.692Z,11.50
2023-04-12T15:36:52.264Z,11.50
2023-04-12T15:39:21.425Z,11.40
2023-04-12T15:41:50.207Z,11.40
2023-04-12T15:44:17.565Z,11.40
2023-04-12T15:46:53.364Z,11.40
2023-04-12T15:49:27.570Z,11.20
2023-04-12T15:51:57.781Z,11.20
2023-04-12T15:54:26.351Z,11.20
2023-04-12T15:56:54.960Z,11.10
2023-04-12T15:59:22.598Z,11.00
2023-04-12T16:01:51.881Z,11.00
2023-04-12T16:04:19.783Z,10.90
2023-04-12T16:06:47.732Z,10.90
2023-04-12T16:09:17.864Z,10.90
2023-04-12T16:11:46.614Z,10.90
2023-04-12T16:14:15.057Z,10.90
2023-04-12T16:16:42.194Z,10.90
2023-04-12T16:19:10.828Z,10.90
2023-04-12T16:21:42.071Z,11.00
2023-04-12T16:24:11.825Z,11.00
2023-04-12T16:26:45.759Z,10.90
2023-04-12T16:29:14.194Z,10.90
2023-04-12T16:31:41.676Z,10.80
2023-04-12T16:34:10.035Z,10.90
2023-04-12T16:36:37.764Z,10.90
2023-04-12T16:39:07.315Z,10.80
2023-04-12T16:41:34.838Z,10.80
2023-04-12T16:44:03.409Z,10.80
2023-04-12T16:46:33.442Z,10.70
2023-04-12T16:49:05.049Z,10.70
2023-04-12T16:54:21.866Z,10.60
2023-04-12T16:56:54.228Z,10.60
2023-04-12T16:59:21.740Z,10.50
2023-04-12T17:01:50.355Z,10.50
2023-04-12T17:04:18.917Z,10.50
2023-04-12T17:06:46.340Z,10.50
2023-04-12T17:09:14.084Z,10.60
2023-04-12T17:11:41.941Z,10.70
2023-04-12T17:14:09.515Z,10.70
2023-04-12T17:16:36.849Z,10.70
2023-04-12T17:19:04.188Z,10.70
2023-04-12T17:21:41.168Z,10.70
2023-04-12T17:24:11.794Z,10.70
2023-04-12T17:26:40.488Z,10.70
2023-04-12T17:29:08.583Z,10.60
2023-04-12T17:31:36.087Z,10.50
2023-04-12T17:34:06.546Z,10.30
2023-04-12T17:36:34.030Z,10.10
2023-04-12T17:39:04.922Z,9.80
2023-04-12T17:41:32.605Z,9.80
2023-04-12T17:44:02.698Z,9.70
2023-04-12T17:46:31.488Z,9.50
2023-04-12T17:49:04.290Z,9.40
2023-04-12T17:51:32.295Z,9.20
2023-04-12T17:54:02.693Z,9.20
2023-04-12T17:56:29.873Z,9.10
2023-04-12T17:58:59.834Z,9.00
2023-04-12T18:01:30.642Z,8.90
2023-04-12T18:04:00.853Z,8.80
2023-04-12T18:06:29.463Z,8.70
2023-04-12T18:08:56.703Z,8.70
2023-04-12T18:11:25.494Z,8.70
2023-04-12T18:13:55.832Z,8.70
2023-04-12T18:16:23.315Z,8.80
2023-04-12T18:18:50.657Z,8.80
2023-04-12T18:21:21.493Z,8.80
2023-04-12T18:23:56.050Z,8.80
2023-04-12T18:26:24.650Z,8.70
2023-04-12T18:28:52.395Z,8.70
2023-04-12T18:31:19.626Z,8.60
2023-04-12T18:33:46.965Z,8.50
2023-04-12T18:36:14.504Z,8.40
2023-04-12T18:38:43.687Z,8.40
2023-04-12T18:41:16.588Z,8.30
2023-04-12T18:43:44.316Z,8.40
2023-04-12T18:46:19.723Z,8.40
2023-04-12T18:48:48.473Z,8.30
2023-04-12T18:51:15.594Z,8.20
2023-04-12T18:53:43.127Z,8.20
2023-04-12T18:56:13.947Z,8.10
2023-04-12T18:58:54.434Z,8.00
2023-04-12T19:01:24.105Z,7.90
2023-04-12T19:03:54.152Z,7.80
2023-04-12T19:06:21.756Z,7.70
2023-04-12T19:08:49.809Z,7.70
2023-04-12T19:11:17.511Z,7.60
2023-04-12T19:13:44.678Z,7.60
2023-04-12T19:16:12.702Z,7.50
2023-04-12T19:18:40.230Z,7.50
2023-04-12T19:21:08.015Z,7.40
2023-04-12T19:23:35.444Z,7.40
2023-04-12T19:26:04.347Z,7.40
2023-04-12T19:28:32.092Z,7.30
2023-04-12T19:31:05.309Z,7.30
2023-04-12T19:33:32.828Z,7.30
2023-04-12T19:36:00.225Z,7.30
2023-04-12T19:38:28.142Z,7.20
2023-04-12T19:40:56.037Z,7.20
2023-04-12T19:43:25.435Z,7.20
2023-04-12T19:45:53.346Z,7.20
2023-04-12T19:48:20.991Z,7.10
2023-04-12T19:50:48.859Z,7.10
2023-04-12T19:53:21.518Z,7.10
2023-04-12T19:55:49.013Z,7.10
2023-04-12T19:58:16.284Z,7.10
2023-04-12T20:00:45.139Z,7.00
2023-04-12T20:03:12.778Z,7.00
2023-04-12T20:05:42.882Z,7.00
2023-04-12T20:08:13.369Z,6.90
2023-04-12T20:10:40.935Z,7.00
2023-04-12T20:13:13.765Z,6.90
2023-04-12T20:15:44.918Z,6.90
2023-04-12T20:18:13.689Z,6.90
2023-04-12T20:20:45.908Z,6.90
2023-04-12T20:23:14.077Z,6.80
2023-04-12T20:25:43.872Z,6.80
2023-04-12T20:28:12.157Z,6.80
2023-04-12T20:30:40.277Z,6.80
2023-04-12T20:33:08.802Z,6.80
2023-04-12T20:35:36.840Z,6.80
2023-04-12T20:38:04.619Z,6.80
2023-04-12T20:40:32.982Z,6.80
2023-04-12T20:43:00.856Z,6.70
2023-04-12T20:45:28.067Z,6.70
2023-04-12T20:47:55.437Z,6.70
2023-04-12T20:50:22.652Z,6.70
2023-04-12T20:52:52.094Z,6.70
2023-04-12T20:55:20.056Z,6.70
2023-04-12T20:57:49.154Z,6.70
2023-04-12T21:00:19.068Z,6.70
2023-04-12T21:02:49.251Z,6.60
2023-04-12T21:05:24.261Z,6.70
2023-04-12T21:07:52.098Z,6.70
2023-04-12T21:10:22.839Z,6.70
2023-04-12T21:12:52.275Z,6.70
2023-04-12T21:15:29.814Z,6.70
2023-04-12T21:18:04.874Z,6.70
2023-04-12T21:20:35.398Z,6.70
2023-04-12T21:23:05.218Z,6.70
2023-04-12T21:25:34.442Z,6.70
2023-04-12T21:28:01.707Z,6.70
2023-04-12T21:30:32.544Z,6.80
2023-04-12T21:33:02.596Z,6.80
2023-04-12T21:35:30.293Z,6.80
2023-04-12T21:37:57.658Z,6.70
2023-04-12T21:40:24.816Z,6.70
2023-04-12T21:42:53.257Z,6.70
2023-04-12T21:45:21.792Z,6.70
2023-04-12T21:47:54.223Z,6.70
2023-04-12T21:50:23.453Z,6.70
2023-04-12T21:52:50.990Z,6.70
2023-04-12T21:55:19.085Z,6.70
2023-04-12T21:57:46.798Z,6.70
2023-04-12T22:00:16.027Z,6.70
2023-04-12T22:02:46.231Z,6.70
2023-04-12T22:05:13.557Z,6.60
2023-04-12T22:07:42.193Z,6.60
2023-04-12T22:10:12.354Z,6.60
2023-04-12T22:12:40.712Z,6.70
2023-04-12T22:15:11.518Z,6.70
2023-04-12T22:17:41.988Z,6.70
2023-04-12T22:20:13.672Z,6.70
2023-04-12T22:22:41.443Z,6.70
2023-04-12T22:25:12.313Z,6.70
2023-04-12T22:27:40.407Z,6.80
2023-04-12T22:30:08.853Z,6.90
2023-04-12T22:32:39.544Z,7.00
2023-04-12T22:35:08.823Z,7.10
2023-04-12T22:37:39.322Z,7.20
2023-04-12T22:40:11.437Z,7.30
2023-04-12T22:42:47.486Z,7.30
2023-04-12T22:45:16.001Z,7.40
2023-04-12T22:47:48.042Z,7.50
2023-04-12T22:50:15.563Z,7.50
2023-04-12T22:52:42.750Z,7.60
2023-04-12T22:55:18.276Z,7.60
2023-04-12T22:57:46.930Z,7.70
2023-04-12T23:00:17.208Z,7.70
2023-04-12T23:02:46.201Z,7.70
2023-04-12T23:05:14.315Z,7.80
2023-04-12T23:08:14.306Z,7.80
2023-04-12T23:10:51.401Z,7.80
2023-04-12T23:13:56.729Z,7.90
2023-04-12T23:16:24.963Z,7.90
2023-04-12T23:18:52.612Z,7.90
2023-04-12T23:21:19.821Z,7.90
2023-04-12T23:23:47.039Z,7.90
2023-04-12T23:26:16.087Z,7.80
2023-04-12T23:28:43.499Z,7.80
2023-04-12T23:31:12.354Z,7.80
2023-04-12T23:33:43.129Z,7.70
2023-04-12T23:36:10.953Z,7.60
2023-04-12T23:38:44.601Z,7.50
2023-04-12T23:41:12.621Z,7.40
2023-04-12T23:43:43.323Z,7.40
2023-04-12T23:46:10.908Z,7.30
2023-04-12T23:48:39.660Z,7.30
2023-04-12T23:51:07.107Z,7.20
2023-04-12T23:53:36.611Z,7.20
2023-04-12T23:56:03.938Z,7.20
2023-04-12T23:58:31.432Z,7.10
